createdAt,value
2022-12-08T00:01:30.785Z,94783.63
2022-12-08T00:03:59.383Z,94775.97
2022-12-08T00:06:46.708Z,94784.56
2022-12-08T00:09:24.960Z,94777.75
2022-12-08T00:11:54.369Z,94782.41
2022-12-08T00:14:24.525Z,94777.22
2022-12-08T00:16:52.476Z,94776.72
2022-12-08T00:19:20.584Z,94777.84
2022-12-08T00:21:50.037Z,94770.59
2022-12-08T00:24:18.212Z,94764.94
2022-12-08T00:26:46.528Z,94762.06
2022-12-08T00:29:17.538Z,94761.88
2022-12-08T00:31:45.861Z,94754.84
2022-12-08T00:34:14.414Z,94758.41
2022-12-08T00:36:42.624Z,94751.59
2022-12-08T00:39:12.213Z,94756.84
2022-12-08T00:41:56.798Z,94749.06
2022-12-08T00:44:24.920Z,94752.06
2022-12-08T00:46:52.877Z,94756.38
2022-12-08T00:49:21.253Z,94758.66
2022-12-08T00:51:49.244Z,94756.19
2022-12-08T00:54:19.311Z,94750.72
2022-12-08T00:56:47.301Z,94751.94
2022-12-08T00:59:15.202Z,94744.88
2022-12-08T01:01:45.209Z,94748.44
2022-12-08T01:04:15.517Z,94746.84
2022-12-08T01:06:43.483Z,94750.78
2022-12-08T01:09:18.253Z,94754.56
2022-12-08T01:11:48.862Z,94745.75
2022-12-08T01:14:16.720Z,94736.56
2022-12-08T01:16:44.932Z,94739.16
2022-12-08T01:19:14.025Z,94748.00
2022-12-08T01:21:42.381Z,94739.25
2022-12-08T01:24:12.138Z,94741.25
2022-12-08T01:26:39.987Z,94739.81
2022-12-08T01:29:09.333Z,94733.16
2022-12-08T01:31:38.420Z,94739.13
2022-12-08T01:34:06.826Z,94733.94
2022-12-08T01:36:37.116Z,94736.34
2022-12-08T01:39:06.780Z,94731.41
2022-12-08T01:41:36.375Z,94729.41
2022-12-08T01:44:24.462Z,94725.63
2022-12-08T01:46:54.819Z,94723.25
2022-12-08T01:49:24.171Z,94723.59
2022-12-08T01:51:56.122Z,94726.53
2022-12-08T01:54:26.055Z,94721.66
2022-12-08T01:56:59.834Z,94716.81
2022-12-08T01:59:28.563Z,94716.56
2022-12-08T02:01:58.117Z,94712.06
2022-12-08T02:04:26.272Z,94708.38
2022-12-08T02:06:54.771Z,94702.53
2022-12-08T02:09:23.003Z,94712.69
2022-12-08T02:11:51.650Z,94702.94
2022-12-08T02:14:19.755Z,94701.16
2022-12-08T02:16:52.376Z,94693.09
2022-12-08T02:19:42.669Z,94688.88
2022-12-08T02:22:14.088Z,94692.22
2022-12-08T02:24:46.797Z,94697.38
2022-12-08T02:27:29.524Z,94703.41
2022-12-08T02:30:15.252Z,94690.69
2022-12-08T02:32:58.006Z,94690.78
2022-12-08T02:35:30.978Z,94678.00
2022-12-08T02:38:05.923Z,94683.38
2022-12-08T02:40:37.483Z,94681.53
2022-12-08T02:43:08.904Z,94680.16
2022-12-08T02:45:40.284Z,94673.13
2022-12-08T02:48:09.798Z,94676.69
2022-12-08T02:50:39.164Z,94671.09
2022-12-08T02:55:42.999Z,94666.75
2022-12-08T02:58:25.426Z,94663.34
2022-12-08T03:01:03.256Z,94658.72
2022-12-08T03:03:36.785Z,94653.31
2022-12-08T03:06:13.945Z,94649.53
2022-12-08T03:08:47.231Z,94652.13
2022-12-08T03:11:20.460Z,94647.91
2022-12-08T03:13:51.460Z,94653.47
2022-12-08T03:16:21.953Z,94647.84
2022-12-08T03:18:52.285Z,94643.28
2022-12-08T03:21:22.907Z,94642.25
2022-12-08T03:23:52.275Z,94650.25
2022-12-08T03:26:24.717Z,94645.88
2022-12-08T03:28:52.627Z,94632.69
2022-12-08T03:31:21.012Z,94636.06
2022-12-08T03:33:51.148Z,94631.84
2022-12-08T03:36:19.727Z,94633.44
2022-12-08T03:38:52.416Z,94632.88
2022-12-08T03:41:20.668Z,94630.50
2022-12-08T03:43:49.147Z,94627.66
2022-12-08T03:46:17.118Z,94630.84
2022-12-08T03:48:45.209Z,94634.22
2022-12-08T03:51:13.170Z,94628.66
2022-12-08T03:53:41.233Z,94636.84
2022-12-08T03:56:15.773Z,94620.28
2022-12-08T03:58:44.247Z,94626.09
2022-12-08T04:01:12.247Z,94616.50
2022-12-08T04:03:40.207Z,94621.13
2022-12-08T04:06:08.608Z,94616.50
2022-12-08T04:08:36.528Z,94624.94
2022-12-08T04:11:06.295Z,94622.13
2022-12-08T04:13:35.627Z,94615.13
2022-12-08T04:16:03.982Z,94608.72
2022-12-08T04:18:32.288Z,94605.94
2022-12-08T04:21:00.117Z,94605.75
2022-12-08T04:23:28.164Z,94613.22
2022-12-08T04:25:56.099Z,94608.94
2022-12-08T04:28:24.048Z,94599.16
2022-12-08T04:30:53.272Z,94601.53
2022-12-08T04:33:21.290Z,94609.50
2022-12-08T04:35:49.165Z,94609.69
2022-12-08T04:38:17.530Z,94608.75
2022-12-08T04:40:45.819Z,94602.78
2022-12-08T04:43:13.716Z,94603.34
2022-12-08T04:45:41.844Z,94601.94
2022-12-08T04:48:12.665Z,94602.59
2022-12-08T04:50:41.613Z,94599.81
2022-12-08T04:53:10.165Z,94597.19
2022-12-08T04:55:39.434Z,94606.31
2022-12-08T04:58:07.276Z,94603.53
2022-12-08T05:00:35.171Z,94595.16
2022-12-08T05:03:03.108Z,94601.97
2022-12-08T05:05:32.418Z,94599.16
2022-12-08T05:08:00.393Z,94610.81
2022-12-08T05:10:28.872Z,94603.00
2022-12-08T05:12:56.726Z,94597.59
2022-12-08T05:15:24.608Z,94605.75
2022-12-08T05:17:52.504Z,94599.94
2022-12-08T05:20:20.546Z,94595.78
2022-12-08T05:22:49.770Z,94588.78
2022-12-08T05:25:17.671Z,94584.16
2022-12-08T05:27:45.618Z,94591.56
2022-12-08T05:30:13.645Z,94581.56
2022-12-08T05:32:41.678Z,94585.38
2022-12-08T05:35:10.001Z,94586.81
2022-12-08T05:37:38.012Z,94590.06
2022-12-08T05:40:08.268Z,94582.44
2022-12-08T05:42:36.209Z,94576.25
2022-12-08T05:45:04.497Z,94576.44
2022-12-08T05:47:36.123Z,94574.25
2022-12-08T05:50:05.126Z,94574.63
2022-12-08T05:52:33.443Z,94575.00
2022-12-08T05:55:01.502Z,94578.00
2022-12-08T05:57:30.827Z,94565.22
2022-12-08T05:59:59.988Z,94580.84
2022-12-08T06:02:28.599Z,94578.66
2022-12-08T06:04:56.520Z,94570.88
2022-12-08T06:07:24.369Z,94567.88
2022-12-08T06:09:52.233Z,94574.25
2022-12-08T06:12:21.347Z,94569.22
2022-12-08T06:14:50.593Z,94559.78
2022-12-08T06:17:18.480Z,94558.56
2022-12-08T06:19:46.299Z,94562.13
2022-12-08T06:22:14.413Z,94570.47
2022-12-08T06:24:42.374Z,94568.41
2022-12-08T06:27:10.269Z,94564.44
2022-12-08T06:29:38.129Z,94561.59
2022-12-08T06:32:07.752Z,94559.34
2022-12-08T06:34:35.673Z,94559.06
2022-12-08T06:37:03.490Z,94563.56
2022-12-08T06:39:31.404Z,94575.53
2022-12-08T06:42:16.941Z,94575.53
2022-12-08T06:44:44.851Z,94576.41
2022-12-08T06:47:14.346Z,94574.28
2022-12-08T06:49:42.245Z,94574.38
2022-12-08T06:52:10.136Z,94580.34
2022-12-08T06:54:38.046Z,94575.53
2022-12-08T06:57:05.868Z,94582.13
2022-12-08T06:59:33.912Z,94575.81
2022-12-08T07:02:01.886Z,94588.34
2022-12-08T07:04:31.188Z,94590.94
2022-12-08T07:06:59.105Z,94591.34
2022-12-08T07:09:26.949Z,94585.50
2022-12-08T07:11:54.865Z,94581.25
2022-12-08T07:14:24.938Z,94593.81
2022-12-08T07:16:53.321Z,94596.56
2022-12-08T07:19:21.425Z,94593.28
2022-12-08T07:21:50.742Z,94593.59
2022-12-08T07:24:18.763Z,94586.94
2022-12-08T07:26:46.595Z,94580.72
2022-12-08T07:29:14.638Z,94595.22
2022-12-08T07:31:42.462Z,94598.47
2022-12-08T07:34:12.388Z,94591.88
2022-12-08T07:36:41.469Z,94593.81
2022-12-08T07:39:10.868Z,94591.94
2022-12-08T07:41:38.767Z,94588.56
2022-12-08T07:44:06.606Z,94590.59
2022-12-08T07:46:34.620Z,94592.97
2022-12-08T07:49:02.605Z,94590.88
2022-12-08T07:51:30.486Z,94588.66
2022-12-08T07:53:58.445Z,94593.84
2022-12-08T07:56:27.760Z,94582.22
2022-12-08T07:58:55.623Z,94590.25
2022-12-08T08:01:25.991Z,94589.41
2022-12-08T08:03:54.988Z,94602.06
2022-12-08T08:06:22.988Z,94595.47
2022-12-08T08:08:50.889Z,94589.50
2022-12-08T08:11:21.159Z,94584.69
2022-12-08T08:13:51.198Z,94579.66
2022-12-08T08:16:19.485Z,94577.47
2022-12-08T08:18:47.887Z,94572.84
2022-12-08T08:21:43.846Z,94582.25
2022-12-08T08:24:03.960Z,94579.66
2022-12-08T08:26:31.840Z,94592.88
2022-12-08T08:29:01.197Z,94587.47
2022-12-08T08:31:29.211Z,94583.84
2022-12-08T08:33:57.510Z,94584.66
2022-12-08T08:36:25.534Z,94583.88
2022-12-08T08:38:53.514Z,94589.66
2022-12-08T08:41:21.451Z,94597.50
2022-12-08T08:43:49.323Z,94597.28
2022-12-08T08:46:18.686Z,94592.88
2022-12-08T08:48:46.789Z,94594.66
2022-12-08T08:51:15.530Z,94593.88
2022-12-08T08:53:43.820Z,94593.28
2022-12-08T08:56:12.128Z,94601.09
2022-12-08T08:58:40.157Z,94597.06
2022-12-08T09:01:08.063Z,94599.88
2022-12-08T09:03:37.254Z,94601.50
2022-12-08T09:06:05.640Z,94601.88
2022-12-08T09:08:33.725Z,94592.88
2022-12-08T09:11:01.678Z,94591.88
2022-12-08T09:13:29.484Z,94584.44
2022-12-08T09:15:57.522Z,94578.03
2022-12-08T09:18:25.508Z,94579.22
2022-12-08T09:20:55.229Z,94582.59
2022-12-08T09:23:23.234Z,94565.03
2022-12-08T09:25:51.062Z,94575.03
2022-12-08T09:28:18.946Z,94571.25
2022-12-08T09:30:47.280Z,94575.25
2022-12-08T09:33:15.528Z,94571.44
2022-12-08T09:35:43.336Z,94568.22
2022-12-08T09:38:12.590Z,94569.97
2022-12-08T09:40:44.161Z,94566.19
2022-12-08T09:43:20.970Z,94556.19
2022-12-08T09:45:51.134Z,94555.97
2022-12-08T09:48:20.478Z,94554.69
2022-12-08T09:50:52.608Z,94552.97
2022-12-08T09:53:24.970Z,94553.41
2022-12-08T09:55:55.063Z,94550.97
2022-12-08T09:58:26.548Z,94545.53
2022-12-08T10:00:54.671Z,94536.78
2022-12-08T10:03:23.961Z,94534.19
2022-12-08T10:05:57.113Z,94533.28
2022-12-08T10:08:30.391Z,94533.50
2022-12-08T10:10:59.574Z,94528.25
2022-12-08T10:13:34.571Z,94527.09
2022-12-08T10:16:11.089Z,94526.66
2022-12-08T10:18:41.325Z,94517.56
2022-12-08T10:21:14.707Z,94515.75
2022-12-08T10:23:45.784Z,94518.44
2022-12-08T10:26:14.652Z,94508.28
2022-12-08T10:28:45.490Z,94513.22
2022-12-08T10:31:18.508Z,94496.00
2022-12-08T10:33:48.195Z,94501.06
2022-12-08T10:36:16.416Z,94514.97
2022-12-08T10:38:45.936Z,94501.38
2022-12-08T10:41:14.640Z,94499.63
2022-12-08T10:43:44.161Z,94497.81
2022-12-08T10:46:13.944Z,94504.63
2022-12-08T10:48:51.976Z,94490.88
2022-12-08T10:51:23.756Z,94489.06
2022-12-08T10:53:53.062Z,94481.72
2022-12-08T10:56:25.291Z,94493.50
2022-12-08T10:59:05.497Z,94488.22
2022-12-08T11:01:35.884Z,94469.16
2022-12-08T11:04:05.432Z,94474.53
2022-12-08T11:06:35.315Z,94466.91
2022-12-08T11:09:05.939Z,94460.72
2022-12-08T11:11:40.927Z,94450.91
2022-12-08T11:14:09.457Z,94441.78
2022-12-08T11:16:37.580Z,94448.69
2022-12-08T11:19:06.899Z,94453.72
2022-12-08T11:21:37.268Z,94448.88
2022-12-08T11:24:20.273Z,94438.22
2022-12-08T11:26:50.571Z,94443.66
2022-12-08T11:29:18.711Z,94433.88
2022-12-08T11:31:50.014Z,94430.81
2022-12-08T11:34:21.245Z,94429.13
2022-12-08T11:36:50.074Z,94438.47
2022-12-08T11:39:19.851Z,94427.97
2022-12-08T11:41:48.675Z,94426.47
2022-12-08T11:44:23.237Z,94417.63
2022-12-08T11:46:56.601Z,94422.25
2022-12-08T11:49:27.577Z,94419.72
2022-12-08T11:52:02.981Z,94423.38
2022-12-08T11:54:35.328Z,94422.09
2022-12-08T11:57:04.913Z,94420.66
2022-12-08T11:59:33.782Z,94418.78
2022-12-08T12:02:02.711Z,94412.78
2022-12-08T12:04:32.703Z,94413.03
2022-12-08T12:07:16.218Z,94408.88
2022-12-08T12:09:52.798Z,94412.31
2022-12-08T12:12:25.927Z,94410.91
2022-12-08T12:15:08.684Z,94397.72
2022-12-08T12:17:41.588Z,94391.94
2022-12-08T12:20:14.732Z,94391.22
2022-12-08T12:22:43.583Z,94391.53
2022-12-08T12:25:19.436Z,94394.34
2022-12-08T12:27:49.383Z,94387.88
2022-12-08T12:30:21.094Z,94391.22
2022-12-08T12:32:52.734Z,94388.25
2022-12-08T12:35:27.109Z,94394.34
2022-12-08T12:37:58.530Z,94391.66
2022-12-08T12:40:29.122Z,94389.84
2022-12-08T12:43:25.314Z,94401.47
2022-12-08T12:46:13.524Z,94389.22
2022-12-08T12:48:41.607Z,94389.78
2022-12-08T12:51:24.333Z,94384.00
2022-12-08T12:53:52.473Z,94379.50
2022-12-08T12:56:38.931Z,94382.91
2022-12-08T12:59:21.857Z,94376.81
2022-12-08T13:01:54.749Z,94371.56
2022-12-08T13:04:30.198Z,94373.41
2022-12-08T13:06:58.361Z,94370.50
2022-12-08T13:09:31.483Z,94365.41
2022-12-08T13:12:00.935Z,94360.28
2022-12-08T13:14:32.806Z,94359.03
2022-12-08T13:17:03.512Z,94356.66
2022-12-08T13:19:32.506Z,94354.03
2022-12-08T13:22:00.805Z,94345.41
2022-12-08T13:24:34.151Z,94350.44
2022-12-08T13:27:20.924Z,94347.59
2022-12-08T13:30:08.787Z,94347.88
2022-12-08T13:35:48.614Z,94351.25
2022-12-08T13:38:18.402Z,94350.69
2022-12-08T13:40:47.172Z,94348.91
2022-12-08T13:43:18.237Z,94350.28
2022-12-08T13:46:52.235Z,94357.09
2022-12-08T13:50:05.824Z,94351.09
2022-12-08T13:55:16.034Z,94355.00
2022-12-08T13:57:22.309Z,94355.59
2022-12-08T13:59:50.196Z,94356.69
2022-12-08T14:02:21.656Z,94347.75
2022-12-08T14:07:39.953Z,94355.22
2022-12-08T14:10:09.780Z,94352.38
2022-12-08T14:12:38.427Z,94356.59
2022-12-08T14:15:07.707Z,94346.31
2022-12-08T14:17:35.677Z,94356.19
2022-12-08T14:20:06.759Z,94357.22
2022-12-08T14:22:35.455Z,94354.00
2022-12-08T14:25:03.744Z,94356.25
2022-12-08T14:27:34.698Z,94352.94
2022-12-08T14:30:03.426Z,94351.91
2022-12-08T14:32:32.727Z,94349.16
2022-12-08T14:35:02.534Z,94350.19
2022-12-08T14:37:35.971Z,94353.13
2022-12-08T14:40:05.506Z,94352.78
2022-12-08T14:42:43.696Z,94354.78
2022-12-08T14:45:13.581Z,94353.47
2022-12-08T14:47:41.621Z,94345.84
2022-12-08T14:50:24.261Z,94352.69
2022-12-08T14:52:54.100Z,94351.44
2022-12-08T14:55:21.895Z,94349.53
2022-12-08T14:57:50.162Z,94344.91
2022-12-08T15:00:20.878Z,94347.53
2022-12-08T15:02:49.217Z,94354.78
2022-12-08T15:05:18.919Z,94355.84
2022-12-08T15:07:48.741Z,94356.03
2022-12-08T15:10:23.063Z,94356.00
2022-12-08T15:13:16.370Z,94358.94
2022-12-08T15:15:48.381Z,94367.09
2022-12-08T15:18:17.770Z,94360.19
2022-12-08T15:20:46.647Z,94365.34
2022-12-08T15:23:26.668Z,94370.50
2022-12-08T15:25:56.116Z,94367.53
2022-12-08T15:28:29.412Z,94364.19
2022-12-08T15:30:57.973Z,94359.13
2022-12-08T15:33:26.231Z,94364.00
2022-12-08T15:35:54.830Z,94359.56
2022-12-08T15:38:24.752Z,94368.91
2022-12-08T15:40:52.693Z,94352.94
2022-12-08T15:43:22.038Z,94361.13
2022-12-08T15:45:58.411Z,94372.06
2022-12-08T15:48:28.712Z,94369.69
2022-12-08T15:50:57.132Z,94375.00
2022-12-08T15:53:24.957Z,94365.66
2022-12-08T15:56:25.728Z,94365.97
2022-12-08T15:58:58.681Z,94371.03
2022-12-08T16:01:27.015Z,94367.41
2022-12-08T16:09:33.644Z,94358.59
2022-12-08T16:12:19.505Z,94357.44
2022-12-08T16:17:37.457Z,94348.91
2022-12-08T16:20:06.405Z,94348.63
2022-12-08T16:25:23.555Z,94350.00
2022-12-08T16:28:05.321Z,94347.31
2022-12-08T16:30:38.033Z,94336.22
2022-12-08T16:33:06.221Z,94336.78
2022-12-08T16:35:34.148Z,94336.69
2022-12-08T16:38:02.117Z,94340.38
2022-12-08T16:40:30.052Z,94339.78
2022-12-08T16:42:57.193Z,94334.81
2022-12-08T16:45:26.987Z,94340.97
2022-12-08T16:47:57.182Z,94343.47
2022-12-08T16:50:26.773Z,94349.09
2022-12-08T16:52:57.279Z,94343.09
2022-12-08T16:55:25.159Z,94343.56
2022-12-08T16:57:53.436Z,94342.78
2022-12-08T17:00:22.672Z,94340.22
2022-12-08T17:02:51.116Z,94334.06
2022-12-08T17:05:21.454Z,94326.88
2022-12-08T17:07:50.189Z,94332.47
2022-12-08T17:10:23.083Z,94325.28
2022-12-08T17:12:51.021Z,94335.44
2022-12-08T17:15:20.004Z,94332.44
2022-12-08T17:17:47.899Z,94328.63
2022-12-08T17:20:16.898Z,94332.00
2022-12-08T17:22:46.736Z,94331.19
2022-12-08T17:25:14.670Z,94340.16
2022-12-08T17:27:42.676Z,94340.19
2022-12-08T17:30:15.607Z,94342.22
2022-12-08T17:32:43.537Z,94345.38
2022-12-08T17:35:11.417Z,94350.16
2022-12-08T17:37:39.245Z,94342.38
2022-12-08T17:40:09.441Z,94338.38
2022-12-08T17:42:38.611Z,94335.19
2022-12-08T17:45:07.895Z,94333.38
2022-12-08T17:47:36.199Z,94337.13
2022-12-08T17:50:04.407Z,94341.34
2022-12-08T17:52:32.715Z,94336.97
2022-12-08T17:55:00.456Z,94335.38
2022-12-08T17:57:29.642Z,94340.56
2022-12-08T17:59:57.400Z,94332.59
2022-12-08T18:02:25.342Z,94333.56
2022-12-08T18:04:53.236Z,94339.59
2022-12-08T18:07:21.302Z,94343.97
2022-12-08T18:09:49.189Z,94344.38
2022-12-08T18:12:22.270Z,94342.38
2022-12-08T18:14:52.770Z,94343.34
2022-12-08T18:17:22.075Z,94340.31
2022-12-08T18:19:50.354Z,94335.13
2022-12-08T18:22:18.222Z,94330.97
2022-12-08T18:24:47.657Z,94332.88
2022-12-08T18:27:16.053Z,94330.66
2022-12-08T18:29:43.930Z,94328.44
2022-12-08T18:32:13.075Z,94327.00
2022-12-08T18:34:41.072Z,94321.19
2022-12-08T18:37:09.030Z,94325.16
2022-12-08T18:39:37.519Z,94329.31
2022-12-08T18:42:22.854Z,94328.00
2022-12-08T18:44:51.295Z,94330.03
2022-12-08T18:47:20.766Z,94329.94
2022-12-08T18:49:48.788Z,94326.25
2022-12-08T18:52:20.414Z,94329.31
2022-12-08T18:55:09.069Z,94325.03
2022-12-08T18:57:42.469Z,94328.19
2022-12-08T19:00:11.176Z,94327.50
2022-12-08T19:02:40.684Z,94339.81
2022-12-08T19:05:09.240Z,94340.75
2022-12-08T19:07:38.555Z,94337.31
2022-12-08T19:10:07.562Z,94337.25
2022-12-08T19:12:35.800Z,94333.22
2022-12-08T19:15:04.218Z,94337.53
2022-12-08T19:17:33.791Z,94346.91
2022-12-08T19:20:03.422Z,94343.88
2022-12-08T19:22:31.428Z,94337.84
2022-12-08T19:24:59.253Z,94332.41
2022-12-08T19:27:28.098Z,94337.53
2022-12-08T19:29:56.207Z,94334.78
2022-12-08T19:32:24.780Z,94333.63
2022-12-08T19:34:52.617Z,94325.09
2022-12-08T19:37:21.849Z,94323.63
2022-12-08T19:40:07.720Z,94331.59
2022-12-08T19:42:53.349Z,94332.47
2022-12-08T19:45:22.577Z,94325.25
2022-12-08T19:47:50.874Z,94331.00
2022-12-08T19:50:38.229Z,94319.72
2022-12-08T19:53:08.288Z,94322.81
2022-12-08T19:55:36.624Z,94314.41
2022-12-08T19:58:04.843Z,94314.72
2022-12-08T20:00:33.648Z,94315.63
2022-12-08T20:03:02.158Z,94311.00
2022-12-08T20:05:30.974Z,94312.81
2022-12-08T20:07:58.914Z,94322.44
2022-12-08T20:10:29.553Z,94312.13
2022-12-08T20:13:18.008Z,94307.47
2022-12-08T20:15:46.415Z,94311.38
2022-12-08T20:18:15.100Z,94314.28
2022-12-08T20:20:43.699Z,94316.44
2022-12-08T20:23:12.010Z,94306.06
2022-12-08T20:25:42.039Z,94300.63
2022-12-08T20:28:10.065Z,94302.16
2022-12-08T20:30:39.190Z,94302.59
2022-12-08T20:33:07.036Z,94301.66
2022-12-08T20:35:34.806Z,94299.63
2022-12-08T20:38:02.852Z,94300.41
2022-12-08T20:40:30.786Z,94298.06
2022-12-08T20:43:00.119Z,94287.81
2022-12-08T20:45:28.012Z,94289.09
2022-12-08T20:47:56.287Z,94287.50
2022-12-08T20:50:24.235Z,94286.50
2022-12-08T20:52:52.331Z,94289.03
2022-12-08T20:55:20.343Z,94285.78
2022-12-08T20:57:48.287Z,94287.38
2022-12-08T21:00:17.747Z,94305.88
2022-12-08T21:02:50.917Z,94298.09
2022-12-08T21:05:23.532Z,94288.31
2022-12-08T21:07:51.482Z,94283.19
2022-12-08T21:10:19.477Z,94291.47
2022-12-08T21:12:47.330Z,94285.59
2022-12-08T21:15:15.225Z,94300.25
2022-12-08T21:17:44.585Z,94308.63
2022-12-08T21:20:13.009Z,94308.75
2022-12-08T21:22:42.313Z,94298.06
2022-12-08T21:25:10.518Z,94300.53
2022-12-08T21:27:39.034Z,94295.25
2022-12-08T21:30:08.164Z,94300.50
2022-12-08T21:32:36.380Z,94294.19
2022-12-08T21:35:05.989Z,94307.75
2022-12-08T21:37:34.056Z,94307.41
2022-12-08T21:40:02.098Z,94294.78
2022-12-08T21:42:46.859Z,94292.97
2022-12-08T21:45:15.878Z,94297.34
2022-12-08T21:47:44.155Z,94286.59
2022-12-08T21:50:14.319Z,94298.75
2022-12-08T21:52:43.028Z,94291.22
2022-12-08T21:55:12.540Z,94289.66
2022-12-08T21:57:41.067Z,94288.31
2022-12-08T22:00:10.940Z,94281.53
2022-12-08T22:02:39.509Z,94295.50
2022-12-08T22:05:07.910Z,94291.16
2022-12-08T22:07:39.937Z,94283.81
2022-12-08T22:10:09.157Z,94284.66
2022-12-08T22:12:38.249Z,94286.09
2022-12-08T22:15:06.888Z,94291.84
2022-12-08T22:17:37.286Z,94286.25
2022-12-08T22:20:06.544Z,94287.66
2022-12-08T22:22:35.819Z,94283.69
2022-12-08T22:25:06.158Z,94281.88
2022-12-08T22:27:34.688Z,94287.28
2022-12-08T22:30:02.916Z,94282.69
2022-12-08T22:32:31.023Z,94281.94
2022-12-08T22:34:59.021Z,94276.75
2022-12-08T22:37:27.433Z,94264.00
2022-12-08T22:39:55.408Z,94264.41
2022-12-08T22:42:25.197Z,94251.81
2022-12-08T22:44:53.213Z,94249.41
2022-12-08T22:47:21.624Z,94253.22
2022-12-08T22:49:49.570Z,94250.81
2022-12-08T22:52:17.677Z,94270.56
2022-12-08T22:54:45.875Z,94262.19
2022-12-08T22:57:13.695Z,94256.22
2022-12-08T22:59:43.320Z,94243.81
2022-12-08T23:02:11.461Z,94244.00
2022-12-08T23:04:39.620Z,94243.63
2022-12-08T23:07:07.513Z,94248.22
2022-12-08T23:09:35.434Z,94239.06
2022-12-08T23:12:03.349Z,94231.47
2022-12-08T23:14:31.361Z,94230.84
2022-12-08T23:17:00.893Z,94235.25
2022-12-08T23:19:28.845Z,94235.06
2022-12-08T23:21:56.580Z,94231.06
2022-12-08T23:24:24.557Z,94236.25
2022-12-08T23:26:52.722Z,94238.66
2022-12-08T23:29:20.669Z,94239.06
2022-12-08T23:31:48.801Z,94234.69
2022-12-08T23:34:18.382Z,94237.47
2022-12-08T23:36:46.325Z,94249.03
2022-12-08T23:39:14.105Z,94243.66
2022-12-08T23:41:41.966Z,94225.31
2022-12-08T23:44:12.018Z,94212.13
2022-12-08T23:46:40.406Z,94194.56
2022-12-08T23:49:08.410Z,94194.56
2022-12-08T23:51:37.558Z,94207.53
2022-12-08T23:54:06.588Z,94195.97
2022-12-08T23:56:34.518Z,94201.16
2022-12-08T23:59:02.419Z,94198.38
